createdAt,value
2023-05-22T00:01:30.067Z,17.25
2023-05-22T00:03:57.545Z,17.33
2023-05-22T00:06:24.480Z,17.34
2023-05-22T00:08:50.909Z,17.39
2023-05-22T00:11:17.435Z,17.45
2023-05-22T00:13:43.778Z,17.54
2023-05-22T00:16:10.280Z,17.58
2023-05-22T00:18:36.726Z,17.56
2023-05-22T00:21:03.141Z,17.34
2023-05-22T00:23:29.980Z,17.18
2023-05-22T00:25:57.346Z,17.09
2023-05-22T00:28:23.775Z,16.96
2023-05-22T00:30:50.197Z,16.99
2023-05-22T00:33:16.710Z,17.04
2023-05-22T00:35:43.092Z,17.13
2023-05-22T00:38:09.553Z,17.14
2023-05-22T00:40:36.181Z,17.08
2023-05-22T00:43:08.276Z,16.82
2023-05-22T00:45:34.936Z,16.74
2023-05-22T00:48:01.396Z,16.62
2023-05-22T00:50:28.021Z,16.55
2023-05-22T00:52:54.460Z,16.67
2023-05-22T00:55:20.913Z,16.65
2023-05-22T00:57:47.875Z,16.55
2023-05-22T01:00:15.097Z,16.62
2023-05-22T01:02:43.351Z,16.68
2023-05-22T01:05:13.050Z,16.54
2023-05-22T01:07:39.751Z,16.62
2023-05-22T01:10:07.571Z,16.69
2023-05-22T01:12:53.090Z,16.83
2023-05-22T01:15:28.782Z,16.76
2023-05-22T01:17:58.236Z,16.74
2023-05-22T01:20:27.572Z,16.56
2023-05-22T01:23:12.864Z,16.59
2023-05-22T01:25:49.296Z,16.65
2023-05-22T01:28:28.898Z,16.71
2023-05-22T01:31:11.315Z,16.68
2023-05-22T01:33:48.997Z,16.66
2023-05-22T01:36:16.114Z,16.74
2023-05-22T01:38:42.996Z,16.67
2023-05-22T01:41:09.404Z,16.54
2023-05-22T01:43:36.257Z,16.49
2023-05-22T01:46:02.864Z,16.47
2023-05-22T01:48:29.297Z,16.47
2023-05-22T01:50:56.839Z,16.52
2023-05-22T01:53:26.251Z,16.46
2023-05-22T01:55:58.380Z,16.33
2023-05-22T01:58:31.302Z,16.37
2023-05-22T02:01:00.962Z,16.40
2023-05-22T02:03:30.396Z,16.25
2023-05-22T02:05:59.900Z,16.29
2023-05-22T02:08:26.992Z,16.34
2023-05-22T02:10:56.288Z,16.27
2023-05-22T02:13:23.337Z,16.27
2023-05-22T02:15:49.986Z,16.23
2023-05-22T02:18:16.376Z,16.17
2023-05-22T02:20:42.821Z,16.21
2023-05-22T02:23:09.251Z,16.20
2023-05-22T02:25:35.684Z,16.07
2023-05-22T02:28:02.333Z,16.11
2023-05-22T02:30:28.733Z,16.18
2023-05-22T02:32:57.883Z,16.10
2023-05-22T02:35:24.366Z,15.98
2023-05-22T02:37:51.013Z,16.05
2023-05-22T02:40:17.580Z,16.06
2023-05-22T02:42:44.013Z,16.09
2023-05-22T02:45:10.524Z,16.07
2023-05-22T02:47:36.893Z,15.99
2023-05-22T02:50:03.762Z,15.86
2023-05-22T02:52:30.886Z,15.89
2023-05-22T02:54:57.846Z,15.88
2023-05-22T02:57:24.798Z,15.86
2023-05-22T02:59:52.840Z,15.90
2023-05-22T03:02:19.850Z,15.91
2023-05-22T03:04:46.476Z,15.96
2023-05-22T03:07:13.221Z,16.00
2023-05-22T03:09:39.892Z,15.97
2023-05-22T03:12:06.378Z,15.84
2023-05-22T03:14:32.818Z,15.84
2023-05-22T03:16:59.456Z,15.90
2023-05-22T03:19:26.420Z,15.96
2023-05-22T03:21:53.929Z,15.91
2023-05-22T03:24:21.006Z,15.77
2023-05-22T03:26:47.574Z,15.57
2023-05-22T03:29:14.006Z,15.59
2023-05-22T03:31:40.403Z,15.48
2023-05-22T03:34:07.349Z,15.42
2023-05-22T03:36:36.955Z,15.50
2023-05-22T03:39:03.964Z,15.57
2023-05-22T03:41:30.619Z,15.64
2023-05-22T03:43:58.532Z,15.65
2023-05-22T03:46:25.035Z,15.55
2023-05-22T03:48:51.556Z,15.44
2023-05-22T03:51:20.130Z,15.57
2023-05-22T03:53:47.135Z,15.59
2023-05-22T03:56:13.575Z,15.66
2023-05-22T03:58:40.180Z,15.62
2023-05-22T04:01:06.570Z,15.59
2023-05-22T04:03:33.123Z,15.52
2023-05-22T04:05:59.655Z,15.46
2023-05-22T04:08:26.072Z,15.46
2023-05-22T04:10:54.478Z,15.54
2023-05-22T04:13:21.210Z,15.54
2023-05-22T04:15:47.741Z,15.50
2023-05-22T04:18:14.940Z,15.46
2023-05-22T04:20:42.740Z,15.57
2023-05-22T04:23:09.653Z,15.42
2023-05-22T04:25:36.523Z,15.44
2023-05-22T04:28:06.035Z,15.49
2023-05-22T04:30:33.983Z,15.50
2023-05-22T04:33:00.885Z,15.44
2023-05-22T04:35:29.650Z,15.24
2023-05-22T04:38:02.623Z,15.31
2023-05-22T04:40:33.866Z,15.43
2023-05-22T04:43:01.514Z,15.54
2023-05-22T04:45:29.528Z,15.57
2023-05-22T04:47:56.367Z,15.55
2023-05-22T04:50:23.839Z,15.54
2023-05-22T04:52:50.326Z,15.44
2023-05-22T04:55:16.864Z,15.40
2023-05-22T04:57:47.793Z,15.41
2023-05-22T05:00:15.882Z,15.48
2023-05-22T05:02:42.660Z,15.51
2023-05-22T05:05:09.515Z,15.55
2023-05-22T05:07:39.397Z,15.51
2023-05-22T05:10:06.814Z,15.56
2023-05-22T05:12:33.212Z,15.68
2023-05-22T05:14:59.845Z,15.84
2023-05-22T05:17:26.369Z,15.73
2023-05-22T05:19:53.164Z,15.64
2023-05-22T05:22:19.553Z,15.64
2023-05-22T05:24:46.158Z,15.81
2023-05-22T05:27:12.679Z,15.67
2023-05-22T05:29:39.074Z,15.79
2023-05-22T05:32:06.074Z,15.92
2023-05-22T05:34:32.519Z,16.01
2023-05-22T05:37:00.624Z,16.21
2023-05-22T05:39:27.037Z,16.55
2023-05-22T05:41:53.608Z,16.80
2023-05-22T05:44:20.097Z,17.05
2023-05-22T05:46:46.596Z,17.34
2023-05-22T05:49:13.070Z,17.63
2023-05-22T05:51:39.614Z,17.96
2023-05-22T05:54:06.079Z,18.18
2023-05-22T05:56:33.039Z,18.27
2023-05-22T05:58:59.573Z,18.24
2023-05-22T06:01:27.012Z,18.41
2023-05-22T06:03:53.630Z,18.57
2023-05-22T06:06:20.319Z,18.69
2023-05-22T06:08:46.705Z,18.86
2023-05-22T06:11:13.086Z,19.10
2023-05-22T06:13:39.507Z,19.27
2023-05-22T06:16:06.872Z,19.29
2023-05-22T06:18:33.465Z,19.20
2023-05-22T06:20:59.937Z,19.04
2023-05-22T06:23:26.495Z,19.21
2023-05-22T06:25:53.926Z,19.56
2023-05-22T06:28:20.466Z,19.73
2023-05-22T06:30:47.225Z,19.66
2023-05-22T06:33:14.589Z,19.90
2023-05-22T06:35:41.879Z,20.15
2023-05-22T06:38:08.445Z,20.37
2023-05-22T06:40:34.927Z,20.58
2023-05-22T06:43:01.662Z,20.79
2023-05-22T06:45:28.719Z,21.01
2023-05-22T06:47:55.477Z,21.16
2023-05-22T06:50:22.280Z,21.15
2023-05-22T06:52:49.314Z,21.11
2023-05-22T06:55:15.697Z,21.19
2023-05-22T06:57:42.100Z,21.13
2023-05-22T07:00:09.964Z,20.95
2023-05-22T07:02:37.031Z,20.84
2023-05-22T07:05:03.681Z,20.55
2023-05-22T07:07:30.755Z,20.69
2023-05-22T07:09:57.183Z,20.64
2023-05-22T07:12:26.155Z,20.88
2023-05-22T07:14:53.033Z,20.70
2023-05-22T07:17:20.563Z,20.52
2023-05-22T07:19:47.515Z,20.40
2023-05-22T07:22:14.209Z,20.27
2023-05-22T07:24:40.857Z,20.53
2023-05-22T07:27:07.335Z,20.79
2023-05-22T07:29:33.761Z,20.82
2023-05-22T07:32:00.431Z,20.82
2023-05-22T07:34:34.114Z,20.81
2023-05-22T07:37:01.284Z,21.00
2023-05-22T07:39:28.663Z,21.29
2023-05-22T07:41:57.023Z,21.51
2023-05-22T07:44:24.439Z,21.69
2023-05-22T07:46:51.975Z,21.73
2023-05-22T07:49:20.311Z,22.04
2023-05-22T07:51:47.192Z,21.76
2023-05-22T07:54:14.303Z,21.69
2023-05-22T07:56:41.598Z,21.59
2023-05-22T07:59:09.211Z,21.61
2023-05-22T08:01:37.547Z,21.51
2023-05-22T08:04:05.055Z,21.37
2023-05-22T08:06:31.757Z,21.56
2023-05-22T08:09:00.095Z,21.75
2023-05-22T08:11:26.575Z,21.71
2023-05-22T08:13:53.002Z,21.70
2023-05-22T08:16:19.542Z,21.49
2023-05-22T08:18:45.945Z,21.70
2023-05-22T08:21:12.409Z,21.85
2023-05-22T08:23:38.791Z,22.09
2023-05-22T08:26:06.217Z,22.37
2023-05-22T08:28:32.619Z,22.53
2023-05-22T08:30:59.703Z,22.47
2023-05-22T08:33:26.872Z,22.72
2023-05-22T08:35:53.302Z,22.53
2023-05-22T08:38:19.731Z,22.93
2023-05-22T08:40:47.976Z,23.22
2023-05-22T08:43:15.479Z,23.44
2023-05-22T08:45:43.783Z,23.17
2023-05-22T08:48:12.568Z,23.49
2023-05-22T08:50:42.765Z,23.65
2023-05-22T08:53:11.318Z,23.10
2023-05-22T08:55:37.846Z,23.24
2023-05-22T08:58:04.385Z,23.20
2023-05-22T09:00:31.000Z,23.23
2023-05-22T09:02:57.660Z,23.44
2023-05-22T09:05:28.954Z,23.41
2023-05-22T09:07:58.223Z,23.27
2023-05-22T09:10:26.954Z,22.61
2023-05-22T09:13:09.510Z,23.04
2023-05-22T09:15:36.530Z,23.51
2023-05-22T09:18:03.871Z,23.50
2023-05-22T09:20:33.839Z,23.96
2023-05-22T09:23:02.503Z,24.32
2023-05-22T09:25:30.191Z,24.63
2023-05-22T09:27:57.054Z,24.71
2023-05-22T09:30:23.479Z,24.45
2023-05-22T09:32:49.960Z,24.57
2023-05-22T09:35:16.579Z,24.74
2023-05-22T09:37:43.153Z,24.87
2023-05-22T09:40:12.053Z,24.74
2023-05-22T09:42:38.582Z,24.78
2023-05-22T09:45:08.451Z,24.70
2023-05-22T09:47:35.277Z,24.85
2023-05-22T09:50:07.366Z,24.86
2023-05-22T09:52:35.042Z,24.67
2023-05-22T09:55:16.797Z,24.94
2023-05-22T09:57:44.290Z,25.02
2023-05-22T10:00:18.132Z,25.16
2023-05-22T10:02:49.176Z,25.26
2023-05-22T10:05:22.065Z,25.27
2023-05-22T10:07:53.616Z,24.69
2023-05-22T10:10:24.494Z,24.92
2023-05-22T10:13:00.234Z,25.17
2023-05-22T10:15:27.111Z,25.24
2023-05-22T10:17:53.593Z,25.18
2023-05-22T10:20:20.340Z,25.45
2023-05-22T10:22:47.435Z,25.84
2023-05-22T10:25:13.983Z,26.17
2023-05-22T10:27:40.784Z,26.43
2023-05-22T10:30:19.183Z,26.13
2023-05-22T10:32:47.816Z,26.31
2023-05-22T10:35:14.193Z,26.46
2023-05-22T10:37:44.442Z,26.39
2023-05-22T10:40:12.776Z,26.60
2023-05-22T10:42:39.580Z,26.77
2023-05-22T10:45:09.367Z,26.92
2023-05-22T10:47:36.335Z,26.97
2023-05-22T10:50:09.737Z,27.26
2023-05-22T10:52:36.730Z,26.95
2023-05-22T10:55:07.285Z,26.55
2023-05-22T10:57:36.884Z,26.76
2023-05-22T11:00:10.657Z,26.77
2023-05-22T11:02:41.684Z,26.91
2023-05-22T11:05:13.947Z,26.89
2023-05-22T11:07:41.261Z,27.49
2023-05-22T11:10:07.874Z,27.78
2023-05-22T11:12:34.296Z,27.57
2023-05-22T11:15:08.026Z,28.03
2023-05-22T11:17:36.309Z,28.08
2023-05-22T11:20:05.590Z,28.47
2023-05-22T11:22:43.015Z,28.26
2023-05-22T11:25:11.349Z,28.18
2023-05-22T11:27:39.337Z,28.72
2023-05-22T11:30:06.797Z,29.18
2023-05-22T11:32:35.337Z,29.51
2023-05-22T11:35:02.067Z,29.73
2023-05-22T11:37:28.821Z,29.85
2023-05-22T11:39:56.822Z,29.35
2023-05-22T11:42:23.914Z,28.74
2023-05-22T11:44:50.823Z,28.68
2023-05-22T11:47:17.356Z,28.32
2023-05-22T11:49:44.445Z,27.80
2023-05-22T11:52:11.048Z,28.01
2023-05-22T11:54:38.878Z,28.41
2023-05-22T11:57:06.877Z,28.96
2023-05-22T11:59:33.786Z,28.73
2023-05-22T12:02:00.321Z,28.66
2023-05-22T12:04:27.353Z,28.98
2023-05-22T12:06:54.709Z,28.89
2023-05-22T12:09:21.877Z,28.77
2023-05-22T12:11:48.576Z,28.68
2023-05-22T12:14:15.119Z,28.99
2023-05-22T12:16:41.758Z,29.14
2023-05-22T12:19:08.986Z,29.32
2023-05-22T12:21:39.220Z,29.75
2023-05-22T12:24:06.182Z,29.37
2023-05-22T12:26:32.928Z,29.69
2023-05-22T12:29:00.239Z,29.63
2023-05-22T12:31:27.114Z,29.61
2023-05-22T12:33:57.115Z,29.78
2023-05-22T12:36:39.830Z,29.88
2023-05-22T12:39:16.981Z,30.25
2023-05-22T12:41:44.103Z,30.47
2023-05-22T12:44:10.923Z,30.91
2023-05-22T12:46:38.052Z,30.92
2023-05-22T12:49:04.539Z,31.28
2023-05-22T12:51:31.958Z,31.25
2023-05-22T12:53:58.603Z,31.38
2023-05-22T12:56:25.164Z,31.30
2023-05-22T12:58:51.652Z,31.44
2023-05-22T13:01:18.443Z,31.23
2023-05-22T13:03:45.793Z,31.41
2023-05-22T13:06:15.302Z,31.36
2023-05-22T13:08:42.002Z,31.49
2023-05-22T13:11:09.297Z,31.78
2023-05-22T13:13:35.730Z,31.90
2023-05-22T13:16:02.169Z,31.59
2023-05-22T13:18:28.661Z,31.20
2023-05-22T13:20:57.505Z,30.66
2023-05-22T13:23:26.776Z,30.43
2023-05-22T13:25:53.260Z,30.41
2023-05-22T13:28:19.886Z,30.27
2023-05-22T13:30:46.364Z,30.69
2023-05-22T13:33:13.739Z,30.76
2023-05-22T13:35:40.368Z,31.14
2023-05-22T13:38:07.206Z,31.26
2023-05-22T13:40:33.776Z,30.89
2023-05-22T13:43:01.482Z,30.38
2023-05-22T13:45:27.983Z,30.26
2023-05-22T13:47:54.455Z,30.80
2023-05-22T13:50:20.988Z,31.05
2023-05-22T13:52:49.229Z,30.78
2023-05-22T13:55:15.709Z,30.26
2023-05-22T13:57:42.227Z,29.56
2023-05-22T14:02:50.263Z,29.22
2023-05-22T14:05:16.833Z,29.86
2023-05-22T14:07:46.368Z,30.32
2023-05-22T14:10:13.009Z,30.33
2023-05-22T14:12:39.437Z,30.65
2023-05-22T14:15:06.162Z,31.13
2023-05-22T14:17:34.717Z,30.74
2023-05-22T14:20:01.632Z,30.19
2023-05-22T14:22:28.017Z,30.34
2023-05-22T14:24:54.622Z,30.38
2023-05-22T14:27:21.071Z,30.44
2023-05-22T14:29:47.438Z,29.97
2023-05-22T14:32:13.866Z,30.05
2023-05-22T14:34:40.507Z,29.98
2023-05-22T14:37:06.940Z,29.77
2023-05-22T14:39:33.354Z,30.15
2023-05-22T14:42:00.768Z,29.98
2023-05-22T14:44:27.286Z,30.25
2023-05-22T14:46:54.575Z,30.66
2023-05-22T14:49:21.029Z,30.59
2023-05-22T14:51:48.365Z,30.17
2023-05-22T14:54:17.756Z,30.61
2023-05-22T14:56:44.663Z,31.03
2023-05-22T14:59:14.305Z,30.51
2023-05-22T15:01:41.465Z,30.77
2023-05-22T15:04:08.880Z,30.89
2023-05-22T15:06:35.662Z,30.97
2023-05-22T15:09:04.986Z,30.94
2023-05-22T15:11:31.948Z,31.22
2023-05-22T15:13:58.366Z,31.12
2023-05-22T15:16:25.869Z,30.87
2023-05-22T15:18:52.375Z,30.78
2023-05-22T15:21:19.187Z,30.64
2023-05-22T15:23:45.716Z,30.37
2023-05-22T15:26:12.303Z,29.97
2023-05-22T15:28:38.638Z,29.39
2023-05-22T15:31:05.057Z,29.46
2023-05-22T15:33:32.572Z,30.12
2023-05-22T15:35:58.990Z,30.04
2023-05-22T15:38:25.601Z,30.13
2023-05-22T15:40:52.137Z,29.76
2023-05-22T15:43:18.825Z,29.29
2023-05-22T15:45:49.404Z,29.34
2023-05-22T15:48:16.610Z,29.29
2023-05-22T15:50:43.078Z,29.30
2023-05-22T15:53:09.580Z,29.17
2023-05-22T15:55:36.617Z,28.99
2023-05-22T15:58:04.606Z,28.85
2023-05-22T16:00:31.913Z,28.97
2023-05-22T16:02:58.602Z,28.98
2023-05-22T16:05:25.293Z,28.87
2023-05-22T16:07:51.772Z,29.02
2023-05-22T16:10:18.720Z,29.33
2023-05-22T16:12:45.249Z,29.71
2023-05-22T16:15:11.929Z,30.19
2023-05-22T16:17:39.082Z,30.49
2023-05-22T16:20:06.417Z,30.57
2023-05-22T16:22:47.226Z,30.54
2023-05-22T16:25:15.964Z,30.42
2023-05-22T16:27:42.647Z,30.38
2023-05-22T16:30:09.352Z,30.59
2023-05-22T16:32:35.974Z,30.51
2023-05-22T16:35:03.740Z,30.45
2023-05-22T16:37:30.470Z,30.40
2023-05-22T16:39:57.070Z,30.37
2023-05-22T16:42:23.984Z,30.10
2023-05-22T16:44:50.411Z,29.97
2023-05-22T16:47:16.895Z,29.77
2023-05-22T16:49:43.401Z,29.52
2023-05-22T16:52:09.914Z,29.19
2023-05-22T16:54:37.058Z,28.96
2023-05-22T16:57:04.168Z,28.85
2023-05-22T16:59:30.933Z,28.82
2023-05-22T17:01:57.383Z,28.77
2023-05-22T17:04:23.908Z,28.71
2023-05-22T17:06:53.750Z,28.55
2023-05-22T17:09:21.664Z,28.40
2023-05-22T17:11:48.588Z,28.31
2023-05-22T17:14:15.137Z,28.14
2023-05-22T17:16:41.666Z,28.15
2023-05-22T17:19:08.217Z,28.10
2023-05-22T17:21:34.772Z,27.97
2023-05-22T17:24:01.561Z,27.63
2023-05-22T17:26:29.649Z,27.45
2023-05-22T17:28:56.247Z,27.32
2023-05-22T17:31:22.796Z,27.33
2023-05-22T17:33:49.502Z,27.32
2023-05-22T17:36:15.922Z,27.35
2023-05-22T17:38:42.372Z,27.13
2023-05-22T17:41:08.984Z,27.12
2023-05-22T17:43:36.774Z,27.10
2023-05-22T17:46:03.897Z,27.05
2023-05-22T17:48:30.403Z,26.88
2023-05-22T17:50:56.841Z,26.88
2023-05-22T17:53:23.351Z,26.83
2023-05-22T17:55:50.919Z,26.72
2023-05-22T17:58:17.980Z,26.74
2023-05-22T18:00:45.743Z,26.57
2023-05-22T18:03:12.504Z,26.46
2023-05-22T18:05:39.014Z,26.34
2023-05-22T18:08:05.806Z,26.18
2023-05-22T18:10:32.752Z,26.10
2023-05-22T18:12:59.182Z,26.23
2023-05-22T18:15:25.936Z,26.26
2023-05-22T18:17:52.435Z,26.39
2023-05-22T18:20:20.115Z,26.35
2023-05-22T18:22:47.670Z,26.48
2023-05-22T18:25:14.180Z,26.53
2023-05-22T18:27:40.619Z,26.60
2023-05-22T18:30:07.887Z,26.64
2023-05-22T18:32:34.471Z,26.43
2023-05-22T18:35:03.535Z,26.23
2023-05-22T18:37:30.338Z,26.28
2023-05-22T18:39:56.963Z,26.17
2023-05-22T18:42:23.693Z,26.12
2023-05-22T18:44:50.689Z,26.16
2023-05-22T18:47:17.503Z,25.87
2023-05-22T18:49:44.299Z,25.46
2023-05-22T18:52:10.820Z,25.32
2023-05-22T18:54:37.411Z,25.53
2023-05-22T19:07:29.433Z,25.18
2023-05-22T19:43:55.177Z,24.57
2023-05-22T19:47:10.350Z,24.64
2023-05-22T20:03:05.231Z,24.32
2023-05-22T20:55:05.554Z,23.29
2023-05-22T20:57:32.406Z,23.04
2023-05-22T20:59:58.842Z,22.92
2023-05-22T21:02:25.581Z,22.90
2023-05-22T21:04:52.092Z,22.69
2023-05-22T21:07:18.519Z,22.54
2023-05-22T21:09:45.845Z,22.43
2023-05-22T21:12:12.245Z,22.41
2023-05-22T21:14:38.661Z,22.29
2023-05-22T21:17:05.849Z,22.29
2023-05-22T21:19:32.481Z,22.36
2023-05-22T21:21:58.844Z,22.38
2023-05-22T21:24:25.449Z,22.44
2023-05-22T21:26:51.934Z,22.36
2023-05-22T21:29:18.447Z,22.21
2023-05-22T21:31:44.917Z,22.16
2023-05-22T21:34:11.314Z,22.07
2023-05-22T21:36:37.872Z,22.03
2023-05-22T21:39:04.338Z,21.96
2023-05-22T21:41:30.888Z,22.02
2023-05-22T21:43:57.552Z,21.98
2023-05-22T21:46:24.452Z,21.92
2023-05-22T21:48:51.021Z,21.92
2023-05-22T21:51:17.437Z,22.10
2023-05-22T21:53:43.812Z,21.99
2023-05-22T21:56:10.449Z,22.02
2023-05-22T21:58:36.829Z,22.02
2023-05-22T22:01:04.006Z,22.07
2023-05-22T22:03:30.525Z,21.97
2023-05-22T22:05:57.079Z,21.90
2023-05-22T22:08:23.568Z,21.82
2023-05-22T22:10:49.965Z,21.77
2023-05-22T22:13:16.554Z,21.85
2023-05-22T22:15:43.096Z,21.85
2023-05-22T22:18:09.656Z,21.68
2023-05-22T22:20:44.191Z,21.77
2023-05-22T22:23:11.969Z,21.73
2023-05-22T22:25:39.062Z,21.56
2023-05-22T22:28:05.940Z,21.41
2023-05-22T22:30:32.881Z,21.25
2023-05-22T22:32:59.510Z,21.25
2023-05-22T22:35:25.971Z,21.43
2023-05-22T22:37:52.372Z,21.57
2023-05-22T22:40:18.798Z,21.54
2023-05-22T22:42:45.297Z,21.57
2023-05-22T22:45:11.853Z,21.72
2023-05-22T22:47:39.577Z,21.73
2023-05-22T22:50:06.215Z,21.75
2023-05-22T22:52:33.538Z,21.69
2023-05-22T22:54:59.999Z,21.66
2023-05-22T22:57:26.451Z,21.71
2023-05-22T22:59:52.831Z,21.52
2023-05-22T23:02:19.255Z,21.35
2023-05-22T23:04:45.713Z,21.27
2023-05-22T23:07:12.159Z,21.24
2023-05-22T23:09:40.216Z,21.07
2023-05-22T23:12:11.049Z,21.03
2023-05-22T23:14:37.713Z,21.00
2023-05-22T23:17:04.780Z,20.88
2023-05-22T23:19:31.243Z,20.83
2023-05-22T23:21:59.720Z,20.57
2023-05-22T23:24:26.101Z,20.61
2023-05-22T23:26:53.001Z,20.68
2023-05-22T23:29:19.390Z,20.56
2023-05-22T23:31:47.349Z,20.58
2023-05-22T23:34:14.044Z,20.61
2023-05-22T23:36:40.418Z,20.68
2023-05-22T23:39:06.850Z,20.35
2023-05-22T23:41:33.793Z,20.39
2023-05-22T23:44:00.217Z,20.42
2023-05-22T23:46:26.694Z,20.51
2023-05-22T23:48:53.377Z,20.49
2023-05-22T23:51:20.059Z,20.41
2023-05-22T23:53:46.477Z,20.38
2023-05-22T23:56:12.956Z,20.38
2023-05-22T23:58:39.673Z,20.26
